VLG49WH LEZL-LEBL
Flight info
| Callsign | VLG49WH |
|---|---|
| Flight time | 1h 19m |
| Altitude | 32000 |
| Route | BUDIT M445 BEGOX N860 VLC L34 CASIM N608 MATEX |
| Aircraft | A320/M-SDE3FGHIRWY/LB1 |
Departure
| Time | 2026-03-27 08:40 |
|---|---|
| Airport | Seville Airport (LEZL) |
Arrival
| Time | 2026-03-27 10:00 |
|---|---|
| Airport | Josep Tarradellas Barcelona-El Prat Airport (LEBL) |
| Time | Latitude | Longitude | Altitude | Speed | Heading |
|---|---|---|---|---|---|
| 2026-03-27 08:05 | 37.42191 | -5.89989 | 94 ft | 0 kts | 314° |
| 2026-03-27 08:30 | 37.42188 | -5.89986 | 93 ft | 2 kts | 314° |
| 2026-03-27 08:30 | 37.42175 | -5.89968 | 94 ft | 3 kts | 310° |
| 2026-03-27 08:30 | 37.42163 | -5.89948 | 93 ft | 3 kts | 302° |
| 2026-03-27 08:30 | 37.42153 | -5.89926 | 95 ft | 3 kts | 286° |
| 2026-03-27 08:31 | 37.42151 | -5.89904 | 94 ft | 3 kts | 247° |
| 2026-03-27 08:31 | 37.42156 | -5.89893 | 94 ft | 1 kts | 225° |
| 2026-03-27 08:31 | 37.42158 | -5.89890 | 94 ft | 0 kts | 225° |
| 2026-03-27 08:34 | 37.42147 | -5.89904 | 94 ft | 9 kts | 225° |
| 2026-03-27 08:34 | 37.42102 | -5.89960 | 96 ft | 8 kts | 225° |
| 2026-03-27 08:34 | 37.42066 | -5.90004 | 94 ft | 6 kts | 224° |
| 2026-03-27 08:35 | 37.42050 | -5.90046 | 94 ft | 4 kts | 259° |
| 2026-03-27 08:35 | 37.42049 | -5.90077 | 94 ft | 3 kts | 267° |
| 2026-03-27 08:35 | 37.42048 | -5.90097 | 94 ft | 2 kts | 269° |
| 2026-03-27 08:35 | 37.42049 | -5.90107 | 94 ft | 1 kts | 275° |
| 2026-03-27 08:36 | 37.42049 | -5.90108 | 94 ft | 0 kts | 275° |
| 2026-03-27 08:36 | 37.42051 | -5.90139 | 94 ft | 9 kts | 272° |
| 2026-03-27 08:36 | 37.42051 | -5.90249 | 94 ft | 13 kts | 268° |
| 2026-03-27 08:37 | 37.41992 | -5.90310 | 94 ft | 10 kts | 214° |
| 2026-03-27 08:37 | 37.41979 | -5.90381 | 95 ft | 8 kts | 270° |
| 2026-03-27 08:37 | 37.41979 | -5.90479 | 94 ft | 13 kts | 269° |
| 2026-03-27 08:37 | 37.41979 | -5.90585 | 93 ft | 12 kts | 269° |
| 2026-03-27 08:38 | 37.41978 | -5.90686 | 92 ft | 12 kts | 270° |
| 2026-03-27 08:38 | 37.41978 | -5.90786 | 92 ft | 11 kts | 269° |
| 2026-03-27 08:38 | 37.41976 | -5.90904 | 92 ft | 16 kts | 261° |
| 2026-03-27 08:38 | 37.41930 | -5.91029 | 90 ft | 15 kts | 241° |
| 2026-03-27 08:39 | 37.41876 | -5.91137 | 91 ft | 14 kts | 235° |
| 2026-03-27 08:39 | 37.41808 | -5.91174 | 92 ft | 11 kts | 145° |
| 2026-03-27 08:39 | 37.41788 | -5.91027 | 93 ft | 38 kts | 89° |
| 2026-03-27 08:39 | 37.41791 | -5.90401 | 98 ft | 102 kts | 89° |
| 2026-03-27 08:40 | 37.41794 | -5.89276 | 102 ft | 153 kts | 89° |
| 2026-03-27 08:40 | 37.41791 | -5.87875 | 494 ft | 162 kts | 88° |
| 2026-03-27 08:40 | 37.41784 | -5.86444 | 1101 ft | 163 kts | 88° |
| 2026-03-27 08:40 | 37.41791 | -5.85025 | 1822 ft | 162 kts | 88° |
| 2026-03-27 08:41 | 37.41801 | -5.83534 | 2210 ft | 182 kts | 89° |
| 2026-03-27 08:41 | 37.41883 | -5.81863 | 2607 ft | 199 kts | 79° |
| 2026-03-27 08:41 | 37.42157 | -5.80076 | 2965 ft | 223 kts | 79° |
| 2026-03-27 08:41 | 37.42466 | -5.78071 | 3395 ft | 243 kts | 79° |
| 2026-03-27 08:42 | 37.42853 | -5.75959 | 4127 ft | 252 kts | 70° |
| 2026-03-27 08:42 | 37.43558 | -5.73921 | 4966 ft | 256 kts | 66° |
| 2026-03-27 08:42 | 37.44287 | -5.71861 | 5800 ft | 260 kts | 65° |
| 2026-03-27 08:42 | 37.45024 | -5.69774 | 6668 ft | 262 kts | 65° |
| 2026-03-27 08:43 | 37.45766 | -5.67667 | 7465 ft | 264 kts | 65° |
| 2026-03-27 08:43 | 37.46515 | -5.65537 | 8246 ft | 268 kts | 64° |
| 2026-03-27 08:43 | 37.47273 | -5.63380 | 9058 ft | 271 kts | 64° |
| 2026-03-27 08:43 | 37.48038 | -5.61196 | 9861 ft | 274 kts | 64° |
| 2026-03-27 08:44 | 37.48814 | -5.58976 | 10419 ft | 285 kts | 64° |
| 2026-03-27 08:44 | 37.49644 | -5.56599 | 10619 ft | 308 kts | 64° |
| 2026-03-27 08:44 | 37.50542 | -5.54034 | 10762 ft | 331 kts | 64° |
| 2026-03-27 08:44 | 37.51503 | -5.51292 | 10888 ft | 353 kts | 65° |
| 2026-03-27 08:45 | 37.52519 | -5.48381 | 11012 ft | 372 kts | 65° |
| 2026-03-27 08:45 | 37.53578 | -5.45335 | 11304 ft | 384 kts | 65° |
| 2026-03-27 08:45 | 37.54656 | -5.42226 | 11843 ft | 389 kts | 65° |
| 2026-03-27 08:45 | 37.55743 | -5.39092 | 12422 ft | 393 kts | 65° |
| 2026-03-27 08:46 | 37.56843 | -5.35923 | 12994 ft | 396 kts | 65° |
| 2026-03-27 08:46 | 37.57951 | -5.32730 | 13576 ft | 400 kts | 65° |
| 2026-03-27 08:46 | 37.59068 | -5.29501 | 14072 ft | 404 kts | 65° |
| 2026-03-27 08:46 | 37.60113 | -5.26184 | 14553 ft | 409 kts | 71° |
| 2026-03-27 08:47 | 37.60727 | -5.22718 | 15015 ft | 414 kts | 81° |
| 2026-03-27 08:47 | 37.60999 | -5.19039 | 15500 ft | 417 kts | 83° |
| 2026-03-27 08:47 | 37.61247 | -5.15432 | 15966 ft | 419 kts | 83° |
| 2026-03-27 08:47 | 37.61503 | -5.11757 | 16429 ft | 422 kts | 83° |
| 2026-03-27 08:48 | 37.61763 | -5.08064 | 16877 ft | 424 kts | 83° |
| 2026-03-27 08:48 | 37.62029 | -5.04303 | 17318 ft | 427 kts | 83° |
| 2026-03-27 08:48 | 37.62291 | -5.00561 | 17746 ft | 429 kts | 83° |
| 2026-03-27 08:48 | 37.62547 | -4.96852 | 18156 ft | 431 kts | 83° |
| 2026-03-27 08:49 | 37.62804 | -4.93073 | 18523 ft | 434 kts | 83° |
| 2026-03-27 08:49 | 37.63063 | -4.89267 | 18843 ft | 437 kts | 83° |
| 2026-03-27 08:49 | 37.63321 | -4.85443 | 19176 ft | 439 kts | 83° |
| 2026-03-27 08:49 | 37.63580 | -4.81597 | 19499 ft | 441 kts | 83° |
| 2026-03-27 08:50 | 37.63840 | -4.77737 | 19829 ft | 442 kts | 83° |
| 2026-03-27 08:50 | 37.64099 | -4.73865 | 20126 ft | 444 kts | 83° |
| 2026-03-27 08:50 | 37.64359 | -4.69976 | 20423 ft | 446 kts | 83° |
| 2026-03-27 08:51 | 37.64876 | -4.62152 | 21000 ft | 449 kts | 83° |
| 2026-03-27 08:51 | 37.65051 | -4.59498 | 21183 ft | 450 kts | 83° |
| 2026-03-27 08:51 | 37.65307 | -4.55558 | 21453 ft | 452 kts | 83° |
| 2026-03-27 08:51 | 37.65564 | -4.51593 | 21686 ft | 454 kts | 83° |
| 2026-03-27 08:52 | 37.65818 | -4.47669 | 21943 ft | 456 kts | 83° |
| 2026-03-27 08:52 | 37.66076 | -4.43670 | 22201 ft | 458 kts | 83° |
| 2026-03-27 08:52 | 37.66334 | -4.39664 | 22449 ft | 459 kts | 83° |
| 2026-03-27 08:52 | 37.66591 | -4.35639 | 22694 ft | 460 kts | 83° |
| 2026-03-27 08:53 | 37.66847 | -4.31605 | 22924 ft | 462 kts | 83° |
| 2026-03-27 08:53 | 37.67103 | -4.27561 | 23144 ft | 463 kts | 83° |
| 2026-03-27 08:53 | 37.67359 | -4.23502 | 23355 ft | 464 kts | 83° |
| 2026-03-27 08:53 | 37.67615 | -4.19433 | 23556 ft | 465 kts | 83° |
| 2026-03-27 08:54 | 37.67868 | -4.15361 | 23809 ft | 465 kts | 83° |
| 2026-03-27 08:54 | 37.68117 | -4.11299 | 24049 ft | 464 kts | 83° |
| 2026-03-27 08:54 | 37.68363 | -4.07243 | 24305 ft | 463 kts | 83° |
| 2026-03-27 08:54 | 37.68609 | -4.03199 | 24572 ft | 462 kts | 83° |
| 2026-03-27 08:55 | 37.68855 | -3.99162 | 24834 ft | 461 kts | 83° |
| 2026-03-27 08:55 | 37.69099 | -3.95129 | 25095 ft | 460 kts | 83° |
| 2026-03-27 08:55 | 37.69340 | -3.91105 | 25357 ft | 459 kts | 83° |
| 2026-03-27 08:55 | 37.69578 | -3.87094 | 25631 ft | 458 kts | 83° |
| 2026-03-27 08:56 | 37.69813 | -3.83083 | 25916 ft | 457 kts | 83° |
| 2026-03-27 08:56 | 37.70049 | -3.79081 | 26174 ft | 457 kts | 83° |
| 2026-03-27 08:56 | 37.70284 | -3.75083 | 26458 ft | 457 kts | 83° |
| 2026-03-27 08:56 | 37.70517 | -3.71090 | 26750 ft | 456 kts | 83° |
| 2026-03-27 08:57 | 37.70749 | -3.67100 | 27054 ft | 455 kts | 83° |
| 2026-03-27 08:57 | 37.70975 | -3.63123 | 27360 ft | 454 kts | 83° |
| 2026-03-27 08:57 | 37.71199 | -3.59151 | 27658 ft | 453 kts | 83° |
| 2026-03-27 08:57 | 37.71422 | -3.55190 | 27949 ft | 452 kts | 83° |
| 2026-03-27 08:58 | 37.71646 | -3.51238 | 28239 ft | 451 kts | 83° |
| 2026-03-27 08:58 | 37.71869 | -3.47289 | 28532 ft | 450 kts | 83° |
| 2026-03-27 08:58 | 37.72091 | -3.43351 | 28824 ft | 449 kts | 83° |
| 2026-03-27 08:58 | 37.72310 | -3.39416 | 29115 ft | 449 kts | 83° |
| 2026-03-27 08:59 | 37.72527 | -3.35484 | 29407 ft | 449 kts | 83° |
| 2026-03-27 08:59 | 37.72739 | -3.31606 | 29726 ft | 448 kts | 83° |
| 2026-03-27 08:59 | 37.72953 | -3.27630 | 30068 ft | 447 kts | 83° |
| 2026-03-27 08:59 | 37.73164 | -3.23716 | 30363 ft | 446 kts | 83° |
| 2026-03-27 09:00 | 37.73373 | -3.19814 | 30633 ft | 445 kts | 83° |
| 2026-03-27 09:00 | 37.73580 | -3.15968 | 30905 ft | 444 kts | 83° |
| 2026-03-27 09:00 | 37.73789 | -3.12077 | 31175 ft | 443 kts | 83° |
| 2026-03-27 09:00 | 37.73995 | -3.08198 | 31455 ft | 442 kts | 83° |
| 2026-03-27 09:01 | 37.74199 | -3.04323 | 31737 ft | 442 kts | 83° |
| 2026-03-27 09:01 | 37.74402 | -3.00449 | 31965 ft | 442 kts | 83° |
| 2026-03-27 09:01 | 37.74806 | -2.92650 | 32084 ft | 449 kts | 83° |
| 2026-03-27 09:02 | 37.75389 | -2.84770 | 32082 ft | 449 kts | 75° |
| 2026-03-27 09:02 | 37.77612 | -2.77481 | 32080 ft | 444 kts | 57° |
| 2026-03-27 09:03 | 37.81460 | -2.71450 | 32076 ft | 441 kts | 45° |
| 2026-03-27 09:03 | 37.85702 | -2.65830 | 32084 ft | 442 kts | 45° |
| 2026-03-27 09:04 | 37.89939 | -2.60188 | 32068 ft | 442 kts | 45° |
| 2026-03-27 09:04 | 37.94178 | -2.54541 | 32075 ft | 442 kts | 45° |
| 2026-03-27 09:05 | 37.98419 | -2.48893 | 32072 ft | 442 kts | 45° |
| 2026-03-27 09:05 | 38.02656 | -2.43235 | 32088 ft | 442 kts | 45° |
| 2026-03-27 09:06 | 38.06888 | -2.37576 | 32087 ft | 442 kts | 45° |
| 2026-03-27 09:06 | 38.11089 | -2.31940 | 32083 ft | 442 kts | 45° |
| 2026-03-27 09:07 | 38.15313 | -2.26266 | 32109 ft | 442 kts | 45° |
| 2026-03-27 09:07 | 38.19533 | -2.20584 | 32103 ft | 441 kts | 45° |
| 2026-03-27 09:08 | 38.23468 | -2.14591 | 32103 ft | 442 kts | 50° |
| 2026-03-27 09:08 | 38.27273 | -2.08449 | 32103 ft | 442 kts | 50° |
| 2026-03-27 09:09 | 38.31074 | -2.02299 | 32095 ft | 442 kts | 50° |
| 2026-03-27 09:09 | 38.34872 | -1.96151 | 32110 ft | 442 kts | 50° |
| 2026-03-27 09:10 | 38.38669 | -1.89994 | 32110 ft | 442 kts | 50° |
| 2026-03-27 09:10 | 38.42460 | -1.83836 | 32106 ft | 441 kts | 50° |
| 2026-03-27 09:11 | 38.46238 | -1.77672 | 32111 ft | 441 kts | 50° |
| 2026-03-27 09:11 | 38.50018 | -1.71512 | 32109 ft | 441 kts | 50° |
| 2026-03-27 09:12 | 38.53791 | -1.65341 | 32098 ft | 441 kts | 50° |
| 2026-03-27 09:12 | 38.57560 | -1.59157 | 32096 ft | 441 kts | 50° |
| 2026-03-27 09:13 | 38.61304 | -1.53011 | 32094 ft | 441 kts | 50° |
| 2026-03-27 09:13 | 38.65074 | -1.46817 | 32109 ft | 441 kts | 50° |
| 2026-03-27 09:14 | 38.68839 | -1.40612 | 32104 ft | 441 kts | 50° |
| 2026-03-27 09:14 | 38.72597 | -1.34404 | 32096 ft | 441 kts | 50° |
| 2026-03-27 09:15 | 38.76355 | -1.28185 | 32098 ft | 441 kts | 50° |
| 2026-03-27 09:15 | 38.80114 | -1.21961 | 32103 ft | 442 kts | 50° |
| 2026-03-27 09:16 | 38.83873 | -1.15731 | 32099 ft | 442 kts | 50° |
| 2026-03-27 09:16 | 38.87628 | -1.09494 | 32110 ft | 442 kts | 50° |
| 2026-03-27 09:17 | 38.91372 | -1.03244 | 32115 ft | 441 kts | 50° |
| 2026-03-27 09:17 | 38.95104 | -0.97008 | 32113 ft | 440 kts | 50° |
| 2026-03-27 09:18 | 38.98836 | -0.90768 | 32111 ft | 440 kts | 50° |
| 2026-03-27 09:18 | 39.02557 | -0.84526 | 32108 ft | 440 kts | 50° |
| 2026-03-27 09:19 | 39.06456 | -0.78499 | 32102 ft | 437 kts | 41° |
| 2026-03-27 09:19 | 39.11417 | -0.74103 | 32116 ft | 433 kts | 27° |
| 2026-03-27 09:20 | 39.16733 | -0.70451 | 32115 ft | 432 kts | 27° |
| 2026-03-27 09:20 | 39.22023 | -0.66784 | 32109 ft | 432 kts | 27° |
| 2026-03-27 09:21 | 39.27288 | -0.63128 | 32108 ft | 432 kts | 27° |
| 2026-03-27 09:21 | 39.32582 | -0.59456 | 32113 ft | 432 kts | 27° |
| 2026-03-27 09:22 | 39.37872 | -0.55774 | 32124 ft | 432 kts | 27° |
| 2026-03-27 09:22 | 39.43158 | -0.52086 | 32125 ft | 431 kts | 27° |
| 2026-03-27 09:23 | 39.48432 | -0.48398 | 32121 ft | 431 kts | 28° |
| 2026-03-27 09:23 | 39.53571 | -0.44402 | 32119 ft | 431 kts | 31° |
| 2026-03-27 09:24 | 39.58580 | -0.40116 | 32133 ft | 431 kts | 32° |
| 2026-03-27 09:24 | 39.63575 | -0.35828 | 32133 ft | 430 kts | 31° |
| 2026-03-27 09:25 | 39.68595 | -0.31620 | 32127 ft | 429 kts | 31° |
| 2026-03-27 09:25 | 39.73624 | -0.27446 | 32124 ft | 429 kts | 31° |
| 2026-03-27 09:26 | 39.78638 | -0.23262 | 32121 ft | 428 kts | 31° |
| 2026-03-27 09:26 | 39.83637 | -0.19063 | 32128 ft | 427 kts | 31° |
| 2026-03-27 09:27 | 39.88625 | -0.14867 | 32126 ft | 426 kts | 31° |
| 2026-03-27 09:27 | 39.93598 | -0.10680 | 32126 ft | 425 kts | 31° |
| 2026-03-27 09:28 | 39.98567 | -0.06487 | 32114 ft | 425 kts | 31° |
| 2026-03-27 09:28 | 40.03529 | -0.02299 | 32104 ft | 425 kts | 31° |
| 2026-03-27 09:29 | 40.08483 | 0.01886 | 32117 ft | 423 kts | 30° |
| 2026-03-27 09:29 | 40.13419 | 0.06068 | 32101 ft | 422 kts | 30° |
| 2026-03-27 09:30 | 40.18313 | 0.10226 | 32096 ft | 422 kts | 30° |
| 2026-03-27 09:30 | 40.23335 | 0.14149 | 32092 ft | 419 kts | 22° |
| 2026-03-27 09:31 | 40.28865 | 0.16450 | 31987 ft | 417 kts | 14° |
| 2026-03-27 09:31 | 40.31655 | 0.17492 | 31732 ft | 417 kts | 15° |
| 2026-03-27 09:31 | 40.34444 | 0.18539 | 31480 ft | 418 kts | 15° |
| 2026-03-27 09:32 | 40.37242 | 0.19590 | 31232 ft | 418 kts | 15° |
| 2026-03-27 09:32 | 40.40041 | 0.20645 | 30778 ft | 418 kts | 15° |
| 2026-03-27 09:32 | 40.42843 | 0.21703 | 29660 ft | 421 kts | 15° |
| 2026-03-27 09:32 | 40.45662 | 0.22768 | 28594 ft | 421 kts | 15° |
| 2026-03-27 09:33 | 40.48460 | 0.23823 | 28109 ft | 411 kts | 15° |
| 2026-03-27 09:33 | 40.51122 | 0.24975 | 27970 ft | 396 kts | 22° |
| 2026-03-27 09:33 | 40.53466 | 0.26787 | 27697 ft | 389 kts | 35° |
| 2026-03-27 09:33 | 40.55405 | 0.29253 | 27436 ft | 390 kts | 47° |
| 2026-03-27 09:34 | 40.56875 | 0.32266 | 27170 ft | 395 kts | 59° |
| 2026-03-27 09:34 | 40.57831 | 0.35677 | 26921 ft | 399 kts | 67° |
| 2026-03-27 09:34 | 40.58653 | 0.39159 | 26690 ft | 399 kts | 67° |
| 2026-03-27 09:34 | 40.59472 | 0.42638 | 26483 ft | 397 kts | 67° |
| 2026-03-27 09:35 | 40.60291 | 0.46107 | 26138 ft | 396 kts | 67° |
| 2026-03-27 09:35 | 40.61106 | 0.49556 | 25779 ft | 394 kts | 67° |
| 2026-03-27 09:35 | 40.61872 | 0.52803 | 25446 ft | 392 kts | 67° |
| 2026-03-27 09:35 | 40.62685 | 0.56249 | 25093 ft | 391 kts | 67° |
| 2026-03-27 09:36 | 40.63490 | 0.59654 | 24743 ft | 389 kts | 67° |
| 2026-03-27 09:36 | 40.64288 | 0.63047 | 24387 ft | 388 kts | 68° |
| 2026-03-27 09:36 | 40.65080 | 0.66437 | 24044 ft | 386 kts | 68° |
| 2026-03-27 09:36 | 40.65865 | 0.69810 | 23695 ft | 385 kts | 68° |
| 2026-03-27 09:37 | 40.66646 | 0.73174 | 23311 ft | 383 kts | 68° |
| 2026-03-27 09:37 | 40.67421 | 0.76517 | 23004 ft | 381 kts | 68° |
| 2026-03-27 09:37 | 40.68196 | 0.79855 | 22627 ft | 380 kts | 67° |
| 2026-03-27 09:37 | 40.68970 | 0.83184 | 22282 ft | 379 kts | 67° |
| 2026-03-27 09:38 | 40.69740 | 0.86497 | 21947 ft | 377 kts | 67° |
| 2026-03-27 09:38 | 40.70572 | 0.89757 | 21641 ft | 371 kts | 60° |
| 2026-03-27 09:38 | 40.71630 | 0.92846 | 21392 ft | 369 kts | 60° |
| 2026-03-27 09:38 | 40.72698 | 0.95919 | 21137 ft | 368 kts | 60° |
| 2026-03-27 09:39 | 40.73767 | 0.98977 | 20886 ft | 367 kts | 59° |
| 2026-03-27 09:39 | 40.74474 | 1.01001 | 20724 ft | 366 kts | 59° |
| 2026-03-27 09:39 | 40.75537 | 1.04045 | 20472 ft | 365 kts | 59° |
| 2026-03-27 09:39 | 40.76594 | 1.07079 | 20228 ft | 363 kts | 60° |
| 2026-03-27 09:40 | 40.77646 | 1.10102 | 19984 ft | 362 kts | 60° |
| 2026-03-27 09:40 | 40.78694 | 1.13120 | 19739 ft | 361 kts | 60° |
| 2026-03-27 09:40 | 40.80074 | 1.17101 | 19444 ft | 361 kts | 59° |
| 2026-03-27 09:40 | 40.80780 | 1.19136 | 19267 ft | 360 kts | 59° |
| 2026-03-27 09:41 | 40.81819 | 1.22138 | 19046 ft | 359 kts | 59° |
| 2026-03-27 09:41 | 40.82853 | 1.25137 | 18799 ft | 358 kts | 59° |
| 2026-03-27 09:41 | 40.83871 | 1.28086 | 18567 ft | 357 kts | 59° |
| 2026-03-27 09:41 | 40.84895 | 1.31066 | 18334 ft | 356 kts | 59° |
| 2026-03-27 09:42 | 40.85913 | 1.34037 | 18062 ft | 354 kts | 59° |
| 2026-03-27 09:42 | 40.86929 | 1.36999 | 17800 ft | 353 kts | 59° |
| 2026-03-27 09:42 | 40.87936 | 1.39943 | 17533 ft | 351 kts | 59° |
| 2026-03-27 09:42 | 40.88938 | 1.42870 | 17274 ft | 349 kts | 59° |
| 2026-03-27 09:43 | 40.90925 | 1.48671 | 16771 ft | 344 kts | 59° |
| 2026-03-27 09:43 | 40.91906 | 1.51541 | 16521 ft | 341 kts | 59° |
| 2026-03-27 09:43 | 40.92879 | 1.54386 | 16299 ft | 338 kts | 59° |
| 2026-03-27 09:44 | 40.93842 | 1.57207 | 16050 ft | 335 kts | 59° |
| 2026-03-27 09:44 | 40.94797 | 1.60010 | 15805 ft | 333 kts | 59° |
| 2026-03-27 09:44 | 40.95748 | 1.62799 | 15564 ft | 332 kts | 59° |
| 2026-03-27 09:44 | 40.96693 | 1.65575 | 15316 ft | 330 kts | 59° |
| 2026-03-27 09:45 | 40.97632 | 1.68337 | 15067 ft | 329 kts | 59° |
| 2026-03-27 09:45 | 40.98566 | 1.71089 | 14833 ft | 327 kts | 59° |
| 2026-03-27 09:45 | 40.99498 | 1.73830 | 14591 ft | 326 kts | 59° |
| 2026-03-27 09:45 | 41.00423 | 1.76558 | 14354 ft | 324 kts | 59° |
| 2026-03-27 09:46 | 41.01344 | 1.79280 | 14121 ft | 323 kts | 59° |
| 2026-03-27 09:46 | 41.02260 | 1.81986 | 13895 ft | 321 kts | 59° |
| 2026-03-27 09:46 | 41.03171 | 1.84681 | 13616 ft | 320 kts | 59° |
| 2026-03-27 09:46 | 41.04080 | 1.87370 | 13350 ft | 319 kts | 59° |
| 2026-03-27 09:47 | 41.04983 | 1.90046 | 13081 ft | 318 kts | 59° |
| 2026-03-27 09:47 | 41.05880 | 1.92709 | 12846 ft | 317 kts | 59° |
| 2026-03-27 09:47 | 41.06777 | 1.95374 | 12584 ft | 316 kts | 60° |
| 2026-03-27 09:47 | 41.07668 | 1.98027 | 12321 ft | 315 kts | 60° |
| 2026-03-27 09:48 | 41.08559 | 2.00680 | 12063 ft | 314 kts | 60° |
| 2026-03-27 09:48 | 41.09328 | 2.02975 | 11841 ft | 313 kts | 60° |
| 2026-03-27 09:48 | 41.10201 | 2.05581 | 11583 ft | 313 kts | 60° |
| 2026-03-27 09:48 | 41.11082 | 2.08211 | 11353 ft | 312 kts | 60° |
| 2026-03-27 09:49 | 41.11959 | 2.10830 | 11104 ft | 310 kts | 60° |
| 2026-03-27 09:49 | 41.12829 | 2.13434 | 10854 ft | 308 kts | 61° |
| 2026-03-27 09:49 | 41.13697 | 2.16031 | 10610 ft | 308 kts | 61° |
| 2026-03-27 09:49 | 41.14561 | 2.18625 | 10368 ft | 307 kts | 61° |
| 2026-03-27 09:50 | 41.15422 | 2.21209 | 10124 ft | 306 kts | 61° |
| 2026-03-27 09:50 | 41.16266 | 2.23753 | 9955 ft | 295 kts | 61° |
| 2026-03-27 09:50 | 41.17076 | 2.26198 | 9818 ft | 283 kts | 61° |
| 2026-03-27 09:50 | 41.17906 | 2.28509 | 9682 ft | 271 kts | 54° |
| 2026-03-27 09:51 | 41.18927 | 2.30591 | 9562 ft | 268 kts | 51° |
| 2026-03-27 09:51 | 41.19948 | 2.32657 | 9421 ft | 268 kts | 51° |
| 2026-03-27 09:51 | 41.20986 | 2.34757 | 8802 ft | 276 kts | 52° |
| 2026-03-27 09:51 | 41.22022 | 2.36869 | 8561 ft | 268 kts | 52° |
| 2026-03-27 09:52 | 41.23163 | 2.38775 | 8101 ft | 263 kts | 36° |
| 2026-03-27 09:52 | 41.24729 | 2.39980 | 7577 ft | 261 kts | 20° |
| 2026-03-27 09:52 | 41.26404 | 2.40944 | 7105 ft | 263 kts | 20° |
| 2026-03-27 09:52 | 41.28091 | 2.41915 | 6630 ft | 265 kts | 20° |
| 2026-03-27 09:53 | 41.29785 | 2.42891 | 6188 ft | 265 kts | 20° |
| 2026-03-27 09:53 | 41.31478 | 2.43863 | 5739 ft | 264 kts | 18° |
| 2026-03-27 09:53 | 41.33247 | 2.44283 | 5297 ft | 258 kts | 352° |
| 2026-03-27 09:53 | 41.34920 | 2.43505 | 4652 ft | 260 kts | 322° |
| 2026-03-27 09:54 | 41.36043 | 2.41660 | 4212 ft | 256 kts | 292° |
| 2026-03-27 09:54 | 41.36573 | 2.39457 | 4043 ft | 244 kts | 286° |
| 2026-03-27 09:54 | 41.37038 | 2.37352 | 3918 ft | 231 kts | 286° |
| 2026-03-27 09:54 | 41.37480 | 2.35356 | 3805 ft | 218 kts | 286° |
| 2026-03-27 09:55 | 41.37870 | 2.33456 | 3682 ft | 208 kts | 278° |
| 2026-03-27 09:55 | 41.37767 | 2.31571 | 3474 ft | 204 kts | 252° |
| 2026-03-27 09:55 | 41.37209 | 2.29848 | 3219 ft | 202 kts | 247° |
| 2026-03-27 09:55 | 41.36631 | 2.28157 | 2938 ft | 200 kts | 245° |
| 2026-03-27 09:56 | 41.36075 | 2.26521 | 2706 ft | 191 kts | 245° |
| 2026-03-27 09:56 | 41.35545 | 2.24964 | 2422 ft | 178 kts | 245° |
| 2026-03-27 09:56 | 41.35050 | 2.23507 | 2176 ft | 167 kts | 245° |
| 2026-03-27 09:56 | 41.34587 | 2.22148 | 1964 ft | 153 kts | 245° |
| 2026-03-27 09:57 | 41.34169 | 2.20919 | 1755 ft | 141 kts | 245° |
| 2026-03-27 09:57 | 41.33770 | 2.19749 | 1557 ft | 138 kts | 246° |
| 2026-03-27 09:57 | 41.33365 | 2.18591 | 1352 ft | 137 kts | 244° |
| 2026-03-27 09:57 | 41.32947 | 2.17441 | 1152 ft | 138 kts | 248° |
| 2026-03-27 09:58 | 41.32591 | 2.16237 | 946 ft | 142 kts | 248° |
| 2026-03-27 09:58 | 41.32189 | 2.15047 | 823 ft | 141 kts | 243° |
| 2026-03-27 09:58 | 41.31753 | 2.13868 | 614 ft | 141 kts | 246° |
| 2026-03-27 09:58 | 41.31349 | 2.12683 | 420 ft | 139 kts | 248° |
| 2026-03-27 09:59 | 41.30951 | 2.11513 | 216 ft | 139 kts | 251° |
| 2026-03-27 09:59 | 41.30560 | 2.10342 | 75 ft | 139 kts | 251° |
| 2026-03-27 09:59 | 41.30184 | 2.09235 | 16 ft | 114 kts | 245° |
| 2026-03-27 09:59 | 41.29927 | 2.08486 | 24 ft | 60 kts | 245° |
| 2026-03-27 10:00 | 41.29782 | 2.08071 | 19 ft | 36 kts | 242° |
| 2026-03-27 10:00 | 41.29631 | 2.07868 | 17 ft | 23 kts | 213° |
| 2026-03-27 10:00 | 41.29503 | 2.07745 | 16 ft | 23 kts | 218° |
| 2026-03-27 10:00 | 41.29422 | 2.07688 | 16 ft | 8 kts | 157° |
| 2026-03-27 10:01 | 41.29374 | 2.07719 | 16 ft | 7 kts | 154° |
| 2026-03-27 10:01 | 41.29338 | 2.07742 | 17 ft | 6 kts | 155° |
| 2026-03-27 10:01 | 41.29279 | 2.07777 | 19 ft | 12 kts | 156° |
| 2026-03-27 10:01 | 41.29205 | 2.07841 | 19 ft | 11 kts | 130° |
| 2026-03-27 10:02 | 41.29156 | 2.07881 | 20 ft | 3 kts | 155° |
| 2026-03-27 10:02 | 41.29136 | 2.07893 | 19 ft | 4 kts | 155° |
| 2026-03-27 10:02 | 41.29132 | 2.07895 | 21 ft | 0 kts | 155° |